Time;durP1;ratioP1;P1;durP2;ratioP2;P2;SDS_P1;SDS_P2;PMS_P1;PMS_P2;Temp;Humidity;BMP_temperature;BMP_pressure;BME280_temperature;BME280_humidity;BME280_pressure;Samples;Min_cycle;Max_cycle;Signal;HPM_P1;HPM_P2
2021/12/20 00:03:36;;;;;;;60.47;10.80;;;;;5.00;96761.00;;;;8380705;28;20254;-75
2021/12/20 00:07:39;;;;;;;64.30;12.03;;;;;5.00;96762.00;;;;8378625;28;20251;-75
2021/12/20 00:11:43;;;;;;;51.80;10.87;;;;;5.00;96760.00;;;;8374759;28;20231;-72
2021/12/20 00:15:46;;;;;;;45.10;9.73;;;;;5.00;96748.00;;;;8370653;28;20230;-70
2021/12/20 00:19:50;;;;;;;53.67;10.63;;;;;5.00;96750.00;;;;8378367;28;20266;-70
2021/12/20 00:23:54;;;;;;;51.90;10.90;;;;;5.00;96750.00;;;;8373471;28;20241;-73
2021/12/20 00:27:57;;;;;;;50.57;10.03;;;;;5.00;96743.00;;;;8364759;28;20262;-71
2021/12/20 00:32:00;;;;;;;46.90;9.77;;;;;5.00;96736.00;;;;8378559;28;20255;-73
2021/12/20 00:36:07;;;;;;;58.47;10.60;;;;;5.00;96741.00;;;;8374790;28;20259;-69
2021/12/20 00:40:20;;;;;;;44.73;9.53;;;;;5.00;96740.00;;;;8368275;28;20252;-72
2021/12/20 00:44:23;;;;;;;34.07;8.80;;;;;4.90;96732.00;;;;8369015;28;20256;-69
2021/12/20 00:48:29;;;;;;;47.87;9.27;;;;;4.90;96734.00;;;;8371752;28;20220;-72
2021/12/20 00:52:34;;;;;;;47.73;9.43;;;;;4.90;96729.00;;;;8378075;28;20843;-73
2021/12/20 00:56:37;;;;;;;51.47;10.57;;;;;4.90;96733.00;;;;8372798;28;20262;-74
2021/12/20 01:00:43;;;;;;;47.77;9.47;;;;;4.90;96727.00;;;;8377330;28;20275;-70
2021/12/20 01:04:47;;;;;;;48.43;9.80;;;;;4.90;96731.00;;;;8378088;28;20226;-78
2021/12/20 01:08:52;;;;;;;39.00;9.03;;;;;4.90;96732.00;;;;8381287;28;20624;-70
2021/12/20 01:12:55;;;;;;;51.70;10.07;;;;;4.90;96740.00;;;;8377705;28;20224;-75
2021/12/20 01:17:04;;;;;;;57.33;12.77;;;;;4.90;96749.00;;;;8369353;28;20278;-71
2021/12/20 01:21:07;;;;;;;56.63;10.57;;;;;4.90;96746.00;;;;8374054;28;20826;-77
2021/12/20 01:25:12;;;;;;;44.83;9.13;;;;;4.90;96736.00;;;;8370239;28;20315;-72
2021/12/20 01:29:16;;;;;;;44.03;9.10;;;;;4.90;96746.00;;;;8377081;28;20723;-75
2021/12/20 01:33:19;;;;;;;41.97;8.67;;;;;4.90;96740.00;;;;8365188;28;20650;-72
2021/12/20 01:37:22;;;;;;;39.80;7.40;;;;;4.90;96744.00;;;;8384139;28;20247;-82
2021/12/20 01:41:27;;;;;;;37.57;8.83;;;;;4.90;96748.00;;;;8383769;28;20299;-70
2021/12/20 01:45:30;;;;;;;32.13;7.77;;;;;4.90;96746.00;;;;8380622;28;20967;-74
2021/12/20 01:49:41;;;;;;;39.83;8.00;;;;;5.00;96746.00;;;;8384824;28;20247;-74
2021/12/20 01:53:44;;;;;;;39.63;7.53;;;;;5.00;96754.00;;;;8378367;28;20661;-75
2021/12/20 01:57:50;;;;;;;30.57;7.13;;;;;4.90;96746.00;;;;8380464;28;20247;-70
2021/12/20 02:01:54;;;;;;;33.40;7.97;;;;;4.90;96751.00;;;;8377036;28;20311;-70
2021/12/20 02:05:59;;;;;;;43.77;7.90;;;;;4.90;96754.00;;;;8367704;28;20280;-74
2021/12/20 02:10:02;;;;;;;26.20;7.77;;;;;4.90;96739.00;;;;8379357;28;20269;-70
2021/12/20 02:14:08;;;;;;;32.17;7.17;;;;;4.90;96726.00;;;;8373181;28;20769;-71
2021/12/20 02:18:12;;;;;;;29.03;6.57;;;;;4.80;96736.00;;;;8383344;28;20319;-71
2021/12/20 02:22:19;;;;;;;36.17;8.97;;;;;4.80;96736.00;;;;8381475;28;20314;-73
2021/12/20 02:26:23;;;;;;;39.70;7.40;;;;;4.80;96734.00;;;;8378675;28;21850;-71
2021/12/20 02:30:42;;;;;;;35.20;7.93;;;;;4.80;96744.00;;;;8379305;28;20244;-70
2021/12/20 02:39:07;;;;;;;39.30;8.40;;;;;4.80;96739.00;;;;8367903;28;20248;-73
2021/12/20 02:43:13;;;;;;;37.40;7.43;;;;;4.90;96735.00;;;;8368777;28;20662;-73
2021/12/20 02:47:28;;;;;;;34.23;8.33;;;;;4.90;96740.00;;;;8383067;28;20254;-72
2021/12/20 02:51:32;;;;;;;32.50;7.40;;;;;4.90;96742.00;;;;8382611;28;20640;-71
2021/12/20 02:55:36;;;;;;;29.47;7.47;;;;;4.90;96731.00;;;;8364999;28;21029;-72
2021/12/20 02:59:40;;;;;;;27.20;6.97;;;;;4.90;96744.00;;;;8378809;28;20922;-71
2021/12/20 03:03:44;;;;;;;30.60;7.87;;;;;4.90;96739.00;;;;8400999;22;20764;-68
2021/12/20 03:07:53;;;;;;;22.20;7.53;;;;;4.90;96740.00;;;;8385169;28;20222;-71
2021/12/20 03:11:59;;;;;;;29.40;7.63;;;;;4.90;96745.00;;;;8380881;28;20236;-72
2021/12/20 03:16:02;;;;;;;32.97;8.10;;;;;4.90;96736.00;;;;8383897;28;20310;-70
2021/12/20 03:20:07;;;;;;;25.70;7.83;;;;;4.90;96732.00;;;;8385221;28;20323;-70
2021/12/20 03:24:10;;;;;;;31.67;7.50;;;;;5.00;96736.00;;;;8383072;28;20326;-72
2021/12/20 03:28:15;;;;;;;38.67;8.43;;;;;5.00;96743.00;;;;8378240;28;20288;-74
2021/12/20 03:32:18;;;;;;;33.77;8.10;;;;;5.00;96742.00;;;;8392231;28;20295;-70
2021/12/20 03:36:21;;;;;;;27.87;8.00;;;;;5.00;96752.00;;;;8377418;28;20302;-72
2021/12/20 03:40:25;;;;;;;14.73;3.90;;;;;4.90;96754.00;;;;8381953;28;20259;-72
2021/12/20 03:44:35;;;;;;;16.17;4.67;;;;;4.90;96752.00;;;;8382664;28;20231;-72
2021/12/20 03:48:38;;;;;;;17.47;4.83;;;;;5.00;96757.00;;;;8381110;28;20312;-72
2021/12/20 03:52:41;;;;;;;22.37;5.53;;;;;4.90;96744.00;;;;8377464;28;20323;-70
2021/12/20 03:56:44;;;;;;;23.07;5.80;;;;;5.00;96753.00;;;;8373467;28;20296;-72
2021/12/20 04:00:49;;;;;;;22.63;7.20;;;;;5.00;96752.00;;;;8375159;28;20319;-70
2021/12/20 04:04:53;;;;;;;31.57;8.03;;;;;4.90;96755.00;;;;8420205;28;20235;-71
2021/12/20 04:08:56;;;;;;;31.80;7.60;;;;;5.00;96771.00;;;;8421490;28;20254;-70
2021/12/20 04:13:00;;;;;;;34.90;8.00;;;;;4.90;96771.00;;;;8418897;28;20963;-70
2021/12/20 04:17:05;;;;;;;34.47;7.53;;;;;4.90;96776.00;;;;8427749;28;21845;-70
2021/12/20 04:21:09;;;;;;;30.50;7.00;;;;;4.90;96773.00;;;;8412568;28;20252;-71
2021/12/20 04:25:12;;;;;;;27.03;7.10;;;;;5.00;96772.00;;;;8423387;28;20325;-72
2021/12/20 04:29:16;;;;;;;30.83;8.43;;;;;5.00;96776.00;;;;8423837;28;20300;-71
2021/12/20 04:33:20;;;;;;;29.13;7.37;;;;;5.00;96778.00;;;;8420803;28;20241;-70
2021/12/20 04:37:24;;;;;;;19.70;6.87;;;;;5.00;96784.00;;;;8424492;28;20636;-70
2021/12/20 04:41:27;;;;;;;23.50;5.83;;;;;5.00;96789.00;;;;8417002;28;20256;-72
2021/12/20 04:45:31;;;;;;;23.00;6.50;;;;;5.00;96792.00;;;;8428119;28;20319;-70
2021/12/20 04:49:35;;;;;;;21.37;5.57;;;;;5.00;96788.00;;;;8423607;28;20492;-72
2021/12/20 04:53:39;;;;;;;21.53;6.33;;;;;5.00;96793.00;;;;8420566;28;20238;-71
2021/12/20 04:57:44;;;;;;;9.87;3.87;;;;;5.00;96806.00;;;;8435439;28;20734;-72
2021/12/20 05:01:47;;;;;;;15.27;4.40;;;;;4.90;96802.00;;;;8414650;28;20988;-72
2021/12/20 05:05:52;;;;;;;10.93;3.47;;;;;4.70;96800.00;;;;8424445;28;20256;-72
2021/12/20 05:09:59;;;;;;;11.97;3.33;;;;;4.60;96799.00;;;;8416061;28;20243;-72
2021/12/20 05:14:02;;;;;;;11.73;3.47;;;;;4.50;96799.00;;;;8413880;28;20300;-72
2021/12/20 05:18:07;;;;;;;7.97;3.20;;;;;4.50;96806.00;;;;8423898;28;20269;-74
2021/12/20 05:22:12;;;;;;;6.83;3.40;;;;;4.40;96814.00;;;;8407742;28;20602;-72
2021/12/20 05:26:15;;;;;;;9.67;3.20;;;;;4.40;96817.00;;;;8415377;28;20314;-74
2021/12/20 05:30:20;;;;;;;19.03;4.20;;;;;4.40;96813.00;;;;8429792;28;20309;-72
2021/12/20 05:34:23;;;;;;;9.40;3.17;;;;;4.40;96822.00;;;;8414830;28;20306;-71
2021/12/20 05:38:28;;;;;;;12.03;3.30;;;;;4.40;96838.00;;;;8416361;28;20331;-72
2021/12/20 05:42:31;;;;;;;11.83;3.10;;;;;4.30;96837.00;;;;8419731;28;20246;-70
2021/12/20 05:46:35;;;;;;;11.70;3.20;;;;;4.30;96839.00;;;;8417288;28;20222;-71
2021/12/20 05:50:39;;;;;;;6.17;3.00;;;;;4.30;96834.00;;;;8419141;28;20265;-72
2021/12/20 05:54:43;;;;;;;11.97;3.20;;;;;4.30;96845.00;;;;8407394;28;20228;-72
2021/12/20 05:58:46;;;;;;;7.13;2.97;;;;;4.30;96836.00;;;;8411373;28;20739;-71
2021/12/20 06:02:51;;;;;;;18.40;3.50;;;;;4.20;96850.00;;;;8409409;28;20342;-70
2021/12/20 06:06:55;;;;;;;11.50;2.53;;;;;4.20;96854.00;;;;8419355;28;20242;-72
2021/12/20 06:10:59;;;;;;;13.13;2.60;;;;;4.00;96861.00;;;;8419064;28;20227;-72
2021/12/20 06:15:08;;;;;;;12.53;3.00;;;;;3.90;96857.00;;;;8420235;28;20306;-71
2021/12/20 06:19:11;;;;;;;10.40;3.20;;;;;3.80;96871.00;;;;8417430;28;20318;-73
2021/12/20 06:23:14;;;;;;;16.23;2.90;;;;;3.80;96879.00;;;;8411892;28;20237;-72
2021/12/20 06:27:19;;;;;;;12.03;2.77;;;;;3.70;96878.00;;;;8427959;28;20234;-73
2021/12/20 06:31:22;;;;;;;8.67;2.73;;;;;3.60;96878.00;;;;8421239;28;20852;-71
2021/12/20 06:35:26;;;;;;;12.00;2.97;;;;;3.40;96882.00;;;;8410862;28;20245;-72
2021/12/20 06:39:30;;;;;;;9.50;2.83;;;;;3.30;96873.00;;;;8426977;28;20648;-74
2021/12/20 06:43:34;;;;;;;11.03;2.67;;;;;3.20;96887.00;;;;8420185;28;20258;-73
2021/12/20 06:47:40;;;;;;;4.77;2.80;;;;;3.10;96889.00;;;;8416559;28;20251;-72
2021/12/20 06:51:46;;;;;;;13.80;4.00;;;;;3.00;96892.00;;;;8411580;28;20282;-72
2021/12/20 06:55:50;;;;;;;13.83;3.60;;;;;3.00;96895.00;;;;8406639;28;20229;-72
2021/12/20 06:59:56;;;;;;;13.13;4.00;;;;;2.90;96897.00;;;;8399907;28;20314;-71
2021/12/20 07:04:01;;;;;;;11.97;3.53;;;;;2.80;96909.00;;;;8404306;28;20793;-73
2021/12/20 07:08:06;;;;;;;14.10;2.70;;;;;2.60;96906.00;;;;8409737;28;20229;-73
2021/12/20 07:12:10;;;;;;;5.43;2.40;;;;;2.50;96908.00;;;;8409197;28;20257;-73
2021/12/20 07:16:15;;;;;;;10.10;2.60;;;;;2.40;96895.00;;;;8414046;28;20313;-72
2021/12/20 07:20:18;;;;;;;4.93;1.90;;;;;2.30;96902.00;;;;8413213;28;20302;-72
2021/12/20 07:24:21;;;;;;;12.80;2.83;;;;;2.20;96899.00;;;;8414192;28;20310;-72
2021/12/20 07:28:25;;;;;;;17.33;3.17;;;;;2.10;96907.00;;;;8410063;28;20263;-73
2021/12/20 07:32:29;;;;;;;9.03;2.63;;;;;2.10;96918.00;;;;8407282;28;20246;-73
2021/12/20 07:36:33;;;;;;;11.87;4.10;;;;;2.20;96919.00;;;;8418942;28;20269;-73
2021/12/20 07:40:36;;;;;;;13.57;3.20;;;;;2.30;96923.00;;;;8410485;28;20263;-74
2021/12/20 07:44:39;;;;;;;12.43;3.37;;;;;2.30;96927.00;;;;8407546;28;20329;-74
2021/12/20 07:48:44;;;;;;;8.07;2.60;;;;;2.30;96927.00;;;;8406707;28;20930;-75
2021/12/20 07:52:47;;;;;;;11.93;3.27;;;;;2.40;96931.00;;;;8415965;28;20230;-74
2021/12/20 07:56:51;;;;;;;15.57;2.70;;;;;2.40;96927.00;;;;8414872;28;20568;-76
2021/12/20 08:00:54;;;;;;;11.90;2.90;;;;;2.50;96925.00;;;;8419341;28;20744;-77
2021/12/20 08:04:59;;;;;;;11.67;3.33;;;;;2.50;96937.00;;;;8409122;28;20770;-76
2021/12/20 08:09:03;;;;;;;11.20;2.70;;;;;2.50;96937.00;;;;8414774;28;20228;-77
2021/12/20 08:13:07;;;;;;;14.70;3.67;;;;;2.60;96939.00;;;;8415096;28;20929;-77
2021/12/20 08:17:10;;;;;;;11.93;3.77;;;;;2.70;96945.00;;;;8413549;28;20225;-79
2021/12/20 08:21:15;;;;;;;14.17;3.03;;;;;2.70;96946.00;;;;8398078;28;20278;-78
2021/12/20 08:25:23;;;;;;;7.10;2.80;;;;;2.80;96943.00;;;;8410245;28;20294;-78
2021/12/20 08:29:26;;;;;;;15.03;3.13;;;;;2.80;96940.00;;;;8406810;28;20233;-78
2021/12/20 08:33:30;;;;;;;13.87;2.57;;;;;2.90;96952.00;;;;8409979;28;20222;-74
2021/12/20 08:37:35;;;;;;;16.30;3.00;;;;;3.00;96959.00;;;;8404732;28;20680;-79
2021/12/20 08:41:38;;;;;;;15.93;3.13;;;;;3.00;96960.00;;;;8412860;28;20222;-79
2021/12/20 08:45:43;;;;;;;9.77;2.93;;;;;3.00;96954.00;;;;8408944;28;20237;-79
2021/12/20 08:49:47;;;;;;;14.67;3.27;;;;;3.10;96952.00;;;;8415303;28;20291;-77
2021/12/20 08:53:51;;;;;;;8.03;2.73;;;;;3.10;96959.00;;;;8409409;28;20241;-79
2021/12/20 08:57:55;;;;;;;12.50;2.90;;;;;3.20;96960.00;;;;8401143;28;20336;-77
2021/12/20 09:01:59;;;;;;;6.97;2.63;;;;;3.20;96955.00;;;;8407828;28;20236;-77
2021/12/20 09:06:02;;;;;;;7.47;3.10;;;;;3.30;96967.00;;;;8418033;28;20235;-76
2021/12/20 09:10:08;;;;;;;5.57;2.20;;;;;3.30;96967.00;;;;8414579;28;20236;-75
2021/12/20 09:14:12;;;;;;;11.47;2.37;;;;;3.40;96970.00;;;;8413630;28;20232;-73
2021/12/20 09:18:16;;;;;;;10.00;2.93;;;;;3.50;96974.00;;;;8402776;28;20274;-76
2021/12/20 09:22:25;;;;;;;6.47;2.97;;;;;3.50;96972.00;;;;8417563;28;20234;-76
2021/12/20 09:26:30;;;;;;;7.63;2.80;;;;;3.50;96967.00;;;;8407221;28;20241;-75
2021/12/20 09:30:33;;;;;;;18.40;3.00;;;;;3.60;96976.00;;;;8412967;28;20230;-77
2021/12/20 09:34:37;;;;;;;10.33;3.60;;;;;3.60;96978.00;;;;8411182;28;20237;-73
2021/12/20 09:38:40;;;;;;;7.17;2.40;;;;;3.70;96974.00;;;;8420556;28;20220;-75
2021/12/20 09:42:49;;;;;;;11.63;2.40;;;;;3.70;96975.00;;;;8420736;28;20231;-76
2021/12/20 09:46:58;;;;;;;8.07;3.80;;;;;3.70;96978.00;;;;8419521;28;20236;-76
2021/12/20 09:51:06;;;;;;;15.10;3.27;;;;;3.70;96972.00;;;;8400520;28;20731;-76
2021/12/20 09:55:10;;;;;;;11.47;2.40;;;;;3.80;96970.00;;;;8416054;28;20306;-76
2021/12/20 09:59:19;;;;;;;6.10;2.40;;;;;3.80;96968.00;;;;8418062;28;20724;-75
2021/12/20 10:03:24;;;;;;;4.60;2.67;;;;;3.90;96969.00;;;;8418904;28;20372;-74
2021/12/20 10:07:29;;;;;;;10.07;2.27;;;;;4.00;96972.00;;;;8413758;28;20232;-74
2021/12/20 10:11:32;;;;;;;6.50;2.07;;;;;4.00;96975.00;;;;8410744;28;20234;-74
2021/12/20 10:15:39;;;;;;;5.37;2.00;;;;;4.00;96976.00;;;;8420935;28;20241;-76
2021/12/20 10:19:42;;;;;;;9.00;2.63;;;;;4.10;96983.00;;;;8418426;28;20217;-75
2021/12/20 10:23:47;;;;;;;9.43;2.23;;;;;4.10;96977.00;;;;8410817;28;20238;-76
2021/12/20 10:27:50;;;;;;;6.57;1.83;;;;;4.20;96985.00;;;;8399628;28;20243;-75
2021/12/20 10:31:55;;;;;;;6.30;1.60;;;;;4.20;96979.00;;;;8410625;28;20230;-77
2021/12/20 10:36:02;;;;;;;4.83;1.60;;;;;4.20;96981.00;;;;8416258;28;20697;-76
2021/12/20 10:40:06;;;;;;;8.17;2.33;;;;;4.20;96970.00;;;;8414965;28;20252;-76
2021/12/20 10:44:17;;;;;;;2.80;1.20;;;;;4.20;96969.00;;;;8418112;28;20226;-76
2021/12/20 10:48:21;;;;;;;5.50;1.63;;;;;4.20;96974.00;;;;8408439;28;20678;-76
2021/12/20 10:52:31;;;;;;;10.47;1.80;;;;;4.30;96971.00;;;;8414581;28;20225;-76
2021/12/20 10:56:38;;;;;;;1.80;1.20;;;;;4.40;96962.00;;;;8410948;28;20226;-76
2021/12/20 11:01:11;;;;;;;6.63;1.53;;;;;4.40;96964.00;;;;8405455;28;20219;-75
2021/12/20 11:05:23;;;;;;;2.70;1.60;;;;;4.40;96965.00;;;;8414628;28;20234;-75
2021/12/20 11:09:28;;;;;;;4.40;1.73;;;;;4.40;96965.00;;;;8415186;28;20286;-76
2021/12/20 11:13:38;;;;;;;6.47;1.50;;;;;4.40;96965.00;;;;8408538;28;20957;-75
2021/12/20 11:17:45;;;;;;;2.67;2.47;;;;;4.40;96961.00;;;;8405131;28;20587;-78
2021/12/20 11:22:04;;;;;;;2.30;1.23;;;;;4.50;96954.00;;;;8402604;28;20786;-77
2021/12/20 11:26:07;;;;;;;5.63;2.73;;;;;4.60;96957.00;;;;8392646;28;20856;-77
2021/12/20 11:30:14;;;;;;;5.00;1.80;;;;;4.60;96953.00;;;;8401197;28;20237;-77
2021/12/20 11:34:18;;;;;;;4.50;1.60;;;;;4.50;96946.00;;;;8411312;28;20277;-76
2021/12/20 11:38:26;;;;;;;9.47;2.77;;;;;4.60;96945.00;;;;8406666;28;20784;-73
2021/12/20 11:42:34;;;;;;;9.53;2.83;;;;;4.70;96938.00;;;;8413395;28;20237;-76
2021/12/20 11:46:52;;;;;;;3.47;1.93;;;;;4.80;96935.00;;;;8403327;28;20240;-79
2021/12/20 11:51:01;;;;;;;18.47;4.80;;;;;4.80;96932.00;;;;8410702;28;20585;-78
2021/12/20 11:55:20;;;;;;;2.30;1.40;;;;;4.90;96935.00;;;;8405170;28;20313;-77
2021/12/20 11:59:50;;;;;;;5.57;1.63;;;;;4.80;96937.00;;;;8416174;28;20229;-78
2021/12/20 12:03:59;;;;;;;7.93;2.53;;;;;4.90;96930.00;;;;8418228;28;20222;-77
2021/12/20 12:08:27;;;;;;;5.80;2.20;;;;;4.80;96924.00;;;;8413853;28;20275;-77
2021/12/20 12:12:42;;;;;;;2.97;1.43;;;;;4.90;96923.00;;;;8409781;28;20229;-75
2021/12/20 12:16:57;;;;;;;1.93;1.60;;;;;4.90;96931.00;;;;8410140;28;20720;-78
2021/12/20 12:21:07;;;;;;;8.03;1.80;;;;;4.90;96923.00;;;;8400515;28;20259;-76
2021/12/20 12:25:41;;;;;;;1.60;1.20;;;;;5.00;96927.00;;;;8411443;28;20223;-76
2021/12/20 12:30:30;;;;;;;6.00;1.43;;;;;4.90;96920.00;;;;8413565;28;20241;-79
2021/12/20 12:34:42;;;;;;;1.30;1.20;;;;;5.00;96919.00;;;;8399426;28;20779;-79
2021/12/20 12:38:56;;;;;;;7.13;1.60;;;;;5.00;96918.00;;;;8406166;28;20997;-79
2021/12/20 12:43:04;;;;;;;2.10;1.30;;;;;5.20;96922.00;;;;8407377;28;20277;-75
2021/12/20 12:47:14;;;;;;;2.00;1.47;;;;;5.20;96928.00;;;;8411952;28;20238;-76
2021/12/20 12:51:48;;;;;;;3.80;1.40;;;;;5.10;96933.00;;;;8413205;28;20247;-78
2021/12/20 12:55:56;;;;;;;4.57;1.70;;;;;5.10;96923.00;;;;8356029;28;20218;-78
2021/12/20 13:00:08;;;;;;;3.80;1.63;;;;;5.10;96937.00;;;;8405594;28;20242;-80
2021/12/20 13:04:12;;;;;;;4.97;1.47;;;;;5.00;96937.00;;;;8407936;28;20240;-79
2021/12/20 13:08:17;;;;;;;1.30;1.20;;;;;5.00;96934.00;;;;8405561;28;20333;-81
2021/12/20 13:12:29;;;;;;;3.27;1.20;;;;;5.00;96938.00;;;;8414176;28;20246;-81
2021/12/20 13:16:32;;;;;;;1.80;1.13;;;;;5.00;96934.00;;;;8412134;28;20298;-80
2021/12/20 13:20:45;;;;;;;3.87;1.57;;;;;5.10;96932.00;;;;8406739;28;20228;-82
2021/12/20 13:24:54;;;;;;;4.43;1.70;;;;;5.10;96934.00;;;;8413013;28;20223;-79
2021/12/20 13:29:00;;;;;;;3.97;1.60;;;;;5.10;96938.00;;;;8413538;28;20718;-80
2021/12/20 13:33:04;;;;;;;4.27;1.87;;;;;5.10;96933.00;;;;8418300;28;20230;-81
2021/12/20 13:37:11;;;;;;;7.50;2.23;;;;;5.10;96937.00;;;;8411121;28;20234;-78
2021/12/20 13:41:18;;;;;;;3.37;1.60;;;;;5.10;96941.00;;;;8410867;28;20222;-76
2021/12/20 13:45:21;;;;;;;1.63;1.20;;;;;5.00;96932.00;;;;8411907;28;20223;-76
2021/12/20 13:49:27;;;;;;;2.77;1.50;;;;;5.10;96933.00;;;;8410667;28;20242;-77
2021/12/20 13:53:33;;;;;;;7.03;1.40;;;;;5.20;96932.00;;;;8409012;28;20245;-77
2021/12/20 13:57:36;;;;;;;5.80;1.37;;;;;5.10;96924.00;;;;8414860;28;20605;-76
2021/12/20 14:01:39;;;;;;;3.27;1.50;;;;;5.10;96940.00;;;;8416202;28;20254;-77
2021/12/20 14:05:43;;;;;;;5.00;1.63;;;;;5.10;96938.00;;;;8416481;28;21016;-77
2021/12/20 14:10:05;;;;;;;3.37;1.83;;;;;5.00;96932.00;;;;8418696;28;20831;-78
2021/12/20 14:14:10;;;;;;;4.20;1.40;;;;;5.00;96939.00;;;;8431186;28;20218;-78
2021/12/20 14:18:33;;;;;;;10.67;1.80;;;;;5.00;96935.00;;;;8418070;28;20271;-76
2021/12/20 14:23:00;;;;;;;4.77;1.40;;;;;4.90;96943.00;;;;8421513;28;20666;-77
2021/12/20 14:27:05;;;;;;;2.57;1.50;;;;;4.80;96949.00;;;;8416790;28;20484;-76
2021/12/20 14:31:12;;;;;;;4.37;1.63;;;;;4.60;96949.00;;;;8418029;28;20259;-76
2021/12/20 14:35:39;;;;;;;6.13;1.70;;;;;4.50;96959.00;;;;8404552;28;20223;-75
2021/12/20 14:39:44;;;;;;;3.27;1.70;;;;;4.40;96948.00;;;;8393406;28;20243;-76
2021/12/20 14:43:50;;;;;;;5.37;2.60;;;;;4.40;96953.00;;;;8417363;28;20221;-76
2021/12/20 14:48:14;;;;;;;5.67;1.73;;;;;4.20;96955.00;;;;8417913;28;20538;-76
2021/12/20 14:52:20;;;;;;;4.83;1.70;;;;;4.20;96951.00;;;;8417718;28;20226;-77
2021/12/20 14:56:23;;;;;;;6.70;2.07;;;;;4.10;96951.00;;;;8417450;28;20320;-76
2021/12/20 15:00:27;;;;;;;3.80;1.70;;;;;4.00;96963.00;;;;8424878;28;20232;-76
2021/12/20 15:04:31;;;;;;;4.23;2.30;;;;;3.90;96956.00;;;;8427631;28;20227;-79
2021/12/20 15:08:34;;;;;;;4.00;2.17;;;;;3.80;96952.00;;;;8416890;28;20240;-79
2021/12/20 15:12:38;;;;;;;3.80;2.40;;;;;3.60;96956.00;;;;8416978;28;20592;-79
2021/12/20 15:16:42;;;;;;;7.03;2.70;;;;;3.30;96948.00;;;;8429465;28;20279;-80
2021/12/20 15:20:46;;;;;;;6.33;2.70;;;;;3.20;96949.00;;;;8425093;28;20245;-72
2021/12/20 15:24:50;;;;;;;7.93;2.40;;;;;3.00;96952.00;;;;8406966;28;20250;-70
2021/12/20 15:28:58;;;;;;;7.13;2.30;;;;;2.80;96952.00;;;;8401426;28;20231;-69
2021/12/20 15:33:04;;;;;;;8.57;2.60;;;;;2.50;96954.00;;;;8397745;28;20228;-70
2021/12/20 15:37:08;;;;;;;7.33;2.77;;;;;2.30;96950.00;;;;8404178;28;20319;-70
2021/12/20 15:41:12;;;;;;;9.83;4.30;;;;;2.10;96958.00;;;;8403366;28;20233;-70
2021/12/20 15:45:16;;;;;;;12.57;3.83;;;;;1.90;96961.00;;;;8404061;28;20269;-70
2021/12/20 15:49:22;;;;;;;15.10;4.23;;;;;1.70;96960.00;;;;8404384;28;20422;-71
2021/12/20 15:53:32;;;;;;;9.80;3.67;;;;;1.60;96964.00;;;;8400113;28;20223;-70
2021/12/20 15:57:54;;;;;;;11.73;4.40;;;;;1.50;96965.00;;;;8403050;28;20225;-70
2021/12/20 16:02:01;;;;;;;5.57;3.00;;;;;1.40;96966.00;;;;8401396;28;20330;-70
2021/12/20 16:06:06;;;;;;;21.93;4.90;;;;;1.20;96972.00;;;;8400249;28;20217;-71
2021/12/20 16:10:10;;;;;;;10.80;4.30;;;;;1.20;96973.00;;;;8403192;28;20228;-71
2021/12/20 16:14:16;;;;;;;10.93;3.93;;;;;1.10;96978.00;;;;8395566;28;20224;-71
2021/12/20 16:18:20;;;;;;;10.17;3.67;;;;;1.10;96987.00;;;;8400338;28;20285;-71
2021/12/20 16:22:25;;;;;;;11.00;3.30;;;;;1.10;96986.00;;;;8397482;28;20238;-70
2021/12/20 16:26:29;;;;;;;15.07;4.10;;;;;1.00;96981.00;;;;8407657;28;20576;-72
2021/12/20 16:30:33;;;;;;;16.73;4.83;;;;;1.00;96986.00;;;;8405356;28;20242;-71
2021/12/20 16:34:36;;;;;;;7.50;3.77;;;;;1.10;96973.00;;;;8417796;28;20810;-71
2021/12/20 16:38:41;;;;;;;5.00;3.37;;;;;1.20;96990.00;;;;8418990;28;20874;-71
2021/12/20 16:42:45;;;;;;;6.13;3.43;;;;;1.20;96988.00;;;;8420628;28;20250;-69
2021/12/20 16:46:57;;;;;;;17.93;5.73;;;;;1.30;96990.00;;;;8419209;28;20224;-68
2021/12/20 16:51:02;;;;;;;12.30;4.60;;;;;1.30;96991.00;;;;8412133;28;20276;-70
2021/12/20 16:55:08;;;;;;;16.67;6.47;;;;;1.30;96996.00;;;;8412828;28;20243;-71
2021/12/20 16:59:12;;;;;;;14.77;5.70;;;;;1.20;96990.00;;;;8415471;28;20223;-71
2021/12/20 17:03:31;;;;;;;9.47;4.43;;;;;1.20;96988.00;;;;8415116;28;20261;-69
2021/12/20 17:07:34;;;;;;;8.30;3.27;;;;;1.20;97010.00;;;;8408569;28;20343;-73
2021/12/20 17:11:39;;;;;;;9.23;3.93;;;;;1.20;97006.00;;;;8412876;28;20235;-74
2021/12/20 17:15:43;;;;;;;8.30;3.67;;;;;1.00;97003.00;;;;8412318;28;20663;-75
2021/12/20 17:19:46;;;;;;;12.43;5.03;;;;;0.90;97003.00;;;;8416677;28;20232;-75
2021/12/20 17:23:49;;;;;;;14.90;4.93;;;;;0.80;97013.00;;;;8415615;28;20223;-76
2021/12/20 17:27:54;;;;;;;7.70;4.20;;;;;0.70;97007.00;;;;8412455;28;20225;-76
2021/12/20 17:31:58;;;;;;;7.23;3.13;;;;;0.60;97009.00;;;;8416717;28;20228;-74
2021/12/20 17:36:01;;;;;;;7.53;2.87;;;;;0.50;97006.00;;;;8413207;28;20219;-74
2021/12/20 17:40:05;;;;;;;8.63;3.73;;;;;0.40;97004.00;;;;8409075;28;20229;-75
2021/12/20 17:44:10;;;;;;;11.53;3.43;;;;;0.40;97016.00;;;;8415561;28;20238;-75
2021/12/20 17:48:13;;;;;;;12.40;3.63;;;;;0.30;97018.00;;;;8411748;28;20225;-75
2021/12/20 17:52:16;;;;;;;7.73;3.03;;;;;0.20;97022.00;;;;8414593;28;20227;-72
2021/12/20 17:56:20;;;;;;;10.10;3.40;;;;;0.20;97022.00;;;;8418033;28;20574;-74
2021/12/20 18:00:27;;;;;;;5.70;3.00;;;;;0.20;97020.00;;;;8417105;28;20235;-74
2021/12/20 18:04:31;;;;;;;8.03;2.70;;;;;0.10;97020.00;;;;8416440;28;20636;-74
2021/12/20 18:08:35;;;;;;;7.63;3.10;;;;;0.10;97019.00;;;;8408492;28;20654;-73
2021/12/20 18:12:39;;;;;;;6.50;2.57;;;;;0.00;97021.00;;;;8408139;28;20223;-72
2021/12/20 18:16:44;;;;;;;11.57;3.80;;;;;0.00;97034.00;;;;8413475;28;20238;-75
2021/12/20 18:20:50;;;;;;;10.20;4.30;;;;;-0.10;97035.00;;;;8418022;28;20756;-74
2021/12/20 18:24:53;;;;;;;5.93;2.90;;;;;-0.10;97038.00;;;;8409651;28;20977;-73
2021/12/20 18:28:57;;;;;;;8.73;3.20;;;;;-0.20;97039.00;;;;8411501;28;20227;-74
2021/12/20 18:33:03;;;;;;;6.67;2.67;;;;;-0.20;97045.00;;;;8419235;28;20223;-75
2021/12/20 18:37:07;;;;;;;6.70;2.83;;;;;-0.30;97045.00;;;;8420983;28;20222;-76
2021/12/20 18:41:10;;;;;;;7.20;2.80;;;;;-0.30;97029.00;;;;8411573;28;20231;-75
2021/12/20 18:45:13;;;;;;;13.50;3.87;;;;;-0.30;97036.00;;;;8413433;28;20227;-77
2021/12/20 18:49:19;;;;;;;8.27;3.20;;;;;-0.30;97031.00;;;;8408950;28;20262;-82
2021/12/20 18:53:23;;;;;;;6.17;3.50;;;;;-0.40;97032.00;;;;8410249;28;20306;-86
2021/12/20 18:57:26;;;;;;;7.90;2.60;;;;;-0.40;97034.00;;;;8411159;28;20222;-83
2021/12/20 19:01:29;;;;;;;15.87;4.00;;;;;-0.40;97038.00;;;;8416898;28;20231;-84
2021/12/20 19:05:35;;;;;;;9.63;4.07;;;;;-0.30;97036.00;;;;8412732;28;20238;-79
2021/12/20 19:09:59;;;;;;;6.33;3.27;;;;;-0.20;97044.00;;;;8408028;28;20246;-78
2021/12/20 19:14:05;;;;;;;7.93;4.10;;;;;-0.10;97041.00;;;;8405102;28;20230;-76
2021/12/20 19:18:09;;;;;;;14.93;6.60;;;;;-0.10;97047.00;;;;8418084;28;20219;-76
2021/12/20 19:22:14;;;;;;;25.87;9.30;;;;;-0.10;97038.00;;;;8415391;28;20272;-75
2021/12/20 19:26:17;;;;;;;13.80;5.50;;;;;-0.20;97044.00;;;;8403229;28;20228;-75
2021/12/20 19:30:36;;;;;;;17.93;7.33;;;;;-0.20;97027.00;;;;8410946;28;20231;-74
2021/12/20 19:34:40;;;;;;;16.07;6.13;;;;;-0.20;97029.00;;;;8421592;28;20227;-73
2021/12/20 19:38:45;;;;;;;6.47;4.30;;;;;-0.20;97031.00;;;;8420097;28;20752;-72
2021/12/20 19:42:49;;;;;;;12.00;4.70;;;;;-0.20;97029.00;;;;8399756;28;20240;-72
2021/12/20 19:46:53;;;;;;;18.30;7.03;;;;;-0.20;97032.00;;;;8407114;28;20288;-72
2021/12/20 19:50:56;;;;;;;8.87;5.13;;;;;-0.30;97025.00;;;;8405284;28;20231;-71
2021/12/20 19:55:01;;;;;;;8.20;4.27;;;;;-0.20;97037.00;;;;8403071;28;20222;-71
2021/12/20 19:59:06;;;;;;;7.50;4.33;;;;;-0.20;97029.00;;;;8410460;28;20722;-70
2021/12/20 20:03:14;;;;;;;11.97;4.80;;;;;-0.30;97014.00;;;;8416573;28;20273;-70
2021/12/20 20:07:18;;;;;;;11.70;4.70;;;;;-0.40;97018.00;;;;8404848;28;20313;-69
2021/12/20 20:11:22;;;;;;;7.73;3.90;;;;;-0.50;97024.00;;;;8406189;28;20230;-69
2021/12/20 20:15:34;;;;;;;11.87;4.73;;;;;-0.50;97029.00;;;;8391530;28;20234;-69
2021/12/20 20:19:38;;;;;;;109.97;31.43;;;;;-0.50;97023.00;;;;8405309;28;20227;-70
2021/12/20 20:23:55;;;;;;;81.53;25.40;;;;;-0.60;97021.00;;;;8400007;28;20255;-69
2021/12/20 20:28:05;;;;;;;13.77;6.00;;;;;-0.60;97014.00;;;;8416546;28;20713;-70
2021/12/20 20:32:10;;;;;;;96.87;26.37;;;;;-0.70;97020.00;;;;8417052;28;20306;-69
2021/12/20 20:36:14;;;;;;;26.40;9.80;;;;;-0.70;97020.00;;;;8418330;28;20317;-69
2021/12/20 20:40:17;;;;;;;43.53;13.43;;;;;-0.80;97021.00;;;;8418580;28;20233;-69
2021/12/20 20:44:21;;;;;;;82.40;25.67;;;;;-0.90;97023.00;;;;8405546;28;20703;-69